Time;durP1;ratioP1;P1;durP2;ratioP2;P2;SDS_P1;SDS_P2;PMS_P1;PMS_P2;Temp;Humidity;BMP_temperature;BMP_pressure;BME280_temperature;BME280_humidity;BME280_pressure;Samples;Min_cycle;Max_cycle;Signal;HPM_P1;HPM_P2
2024/02/12 00:02:02;;;;;;;30.00;16.58;;;;;;;-145.63;56.61;39075.09;5029005;28;20255;-65
2024/02/12 00:04:29;;;;;;;29.20;16.23;;;;;;;-145.63;56.87;39055.53;5030164;28;20061;-66
2024/02/12 00:06:57;;;;;;;33.58;16.02;;;;;;;-145.63;56.55;39061.41;5019690;28;20037;-65
2024/02/12 00:09:26;;;;;;;31.85;16.98;;;;;;;-145.63;56.72;39061.41;5036916;28;20175;-65
2024/02/12 00:11:53;;;;;;;31.55;18.17;;;;;;;-145.63;56.82;39073.13;5055596;28;20095;-65
2024/02/12 00:14:19;;;;;;;28.45;17.38;;;;;;;-145.63;56.70;39065.31;5042760;28;20095;-66
2024/02/12 00:16:45;;;;;;;27.80;15.63;;;;;;;-145.63;56.98;39096.59;5027808;28;20561;-65
2024/02/12 00:19:15;;;;;;;26.10;16.00;;;;;;;-145.63;57.47;39080.97;5035659;28;20132;-66
2024/02/12 00:21:42;;;;;;;31.17;17.92;;;;;;;-145.63;57.20;39067.28;5035448;28;20060;-66
2024/02/12 00:24:09;;;;;;;28.33;15.40;;;;;;;-145.63;57.04;39063.34;5033534;28;20033;-66
2024/02/12 00:26:35;;;;;;;28.67;17.50;;;;;;;-145.63;57.55;39041.84;5036713;28;20139;-66
2024/02/12 00:29:01;;;;;;;32.58;17.60;;;;;;;-145.63;57.19;39094.66;5025213;28;20069;-65
2024/02/12 00:31:27;;;;;;;32.88;17.33;;;;;;;-145.63;57.34;39069.22;5022958;28;20041;-65
2024/02/12 00:33:54;;;;;;;31.45;17.67;;;;;;;-145.63;57.28;39080.97;5034506;28;20076;-66
2024/02/12 00:36:20;;;;;;;29.60;17.10;;;;;;;-145.63;57.02;39098.56;5016644;28;20133;-66
2024/02/12 00:38:47;;;;;;;29.45;17.92;;;;;;;-145.63;57.37;39090.75;5034419;28;20033;-65
2024/02/12 00:41:14;;;;;;;30.20;17.55;;;;;;;-145.63;57.35;39067.28;5023317;28;20038;-64
2024/02/12 00:43:44;;;;;;;31.40;18.33;;;;;;;-145.63;57.57;39086.81;5024661;28;20036;-66
2024/02/12 00:46:15;;;;;;;31.80;16.45;;;;;;;-145.63;57.24;39086.81;5031203;28;20403;-66
2024/02/12 00:48:42;;;;;;;31.58;17.48;;;;;;;-145.63;57.49;39080.97;5016599;28;20026;-66
2024/02/12 00:51:12;;;;;;;29.83;17.45;;;;;;;-145.63;57.63;39094.66;5036318;28;20404;-65
2024/02/12 00:53:40;;;;;;;33.47;19.15;;;;;;;-145.63;57.51;39080.97;5029648;28;20032;-65
2024/02/12 00:56:06;;;;;;;32.80;17.67;;;;;;;-145.63;57.93;39075.09;5025192;28;20069;-66
2024/02/12 00:58:35;;;;;;;31.13;17.20;;;;;;;-145.63;57.88;39075.09;5021996;28;20425;-65
2024/02/12 01:01:03;;;;;;;32.08;17.13;;;;;;;-145.63;57.87;39075.09;5033271;28;20715;-65
2024/02/12 01:03:49;;;;;;;31.60;17.65;;;;;;;-145.63;58.35;39075.09;5017261;28;20368;-65
2024/02/12 01:06:16;;;;;;;30.60;17.13;;;;;;;-145.63;58.42;39065.31;5035938;28;20033;-65
2024/02/12 01:08:43;;;;;;;32.35;17.63;;;;;;;-145.63;58.01;39079.00;5019510;28;20355;-65
2024/02/12 01:11:09;;;;;;;33.65;18.80;;;;;;;-145.63;58.16;39086.81;5039485;28;20033;-65
2024/02/12 01:13:35;;;;;;;30.65;18.40;;;;;;;-145.63;57.82;39061.41;5046323;28;20445;-66
2024/02/12 01:16:00;;;;;;;33.15;18.23;;;;;;;-145.63;57.69;39080.97;5033386;28;20116;-65
2024/02/12 01:18:28;;;;;;;29.85;15.52;;;;;;;-145.63;58.16;39098.56;5029333;28;20029;-66
2024/02/12 01:20:55;;;;;;;34.08;19.27;;;;;;;-145.63;58.41;39090.75;5035609;28;20025;-66
2024/02/12 01:23:22;;;;;;;31.35;18.02;;;;;;;-145.63;58.13;39055.53;5022161;28;20045;-66
2024/02/12 01:25:51;;;;;;;32.20;18.30;;;;;;;-145.63;57.96;39104.44;5024690;28;20033;-66
2024/02/12 01:28:18;;;;;;;31.80;18.40;;;;;;;-145.63;57.69;39086.81;5030816;28;20033;-68
2024/02/12 01:30:44;;;;;;;34.90;18.95;;;;;;;-145.63;57.71;39090.75;5015972;28;20423;-67
2024/02/12 01:33:10;;;;;;;31.65;18.23;;;;;;;-145.63;57.72;39073.13;5035584;28;20042;-66
2024/02/12 01:35:38;;;;;;;33.70;18.48;;;;;;;-145.63;57.72;39096.59;5020060;28;20045;-66
2024/02/12 01:38:08;;;;;;;35.90;19.55;;;;;;;-145.63;57.26;39092.69;5026615;28;20080;-66
2024/02/12 01:40:34;;;;;;;32.13;17.63;;;;;;;-145.63;57.83;39075.09;5028218;28;20517;-67
2024/02/12 01:43:04;;;;;;;34.90;18.42;;;;;;;-145.63;57.68;39102.47;5020196;28;20034;-65
2024/02/12 01:45:31;;;;;;;32.42;17.90;;;;;;;-145.63;57.70;39075.09;5055014;28;20056;-65
2024/02/12 01:47:58;;;;;;;31.05;18.17;;;;;;;-145.63;57.97;39051.63;5036696;28;20022;-65
2024/02/12 01:50:26;;;;;;;29.02;17.15;;;;;;;-145.63;57.98;38893.22;5031270;28;20053;-66
2024/02/12 01:52:52;;;;;;;29.88;17.42;;;;;;;-145.63;58.26;39071.19;5032368;28;20026;-65
2024/02/12 01:55:20;;;;;;;32.42;18.73;;;;;;;-145.63;58.24;39102.47;5029518;28;20096;-65
2024/02/12 01:57:50;;;;;;;34.05;18.67;;;;;;;-145.63;58.20;39118.13;5019976;28;20451;-65
2024/02/12 02:00:25;;;;;;;38.30;20.63;;;;;;;-145.63;58.59;39067.28;5035208;28;20034;-65
2024/02/12 02:02:51;;;;;;;33.08;18.00;;;;;;;-145.63;58.74;39104.44;5052582;28;20039;-65
2024/02/12 02:05:17;;;;;;;34.40;17.98;;;;;;;-145.63;58.63;39094.66;5041822;28;20025;-67
2024/02/12 02:07:47;;;;;;;36.40;19.05;;;;;;;-145.63;58.44;39080.97;5027051;28;20030;-66
2024/02/12 02:10:14;;;;;;;35.95;18.52;;;;;;;-145.63;58.77;39100.50;5018738;28;20037;-65
2024/02/12 02:12:46;;;;;;;33.00;18.63;;;;;;;-145.63;58.53;39106.38;5035157;28;20029;-66
2024/02/12 02:15:35;;;;;;;32.72;18.95;;;;;;;-145.63;58.85;39086.81;5014697;28;20048;-65
2024/02/12 02:18:03;;;;;;;33.42;17.90;;;;;;;-145.63;58.69;39092.69;5041925;28;20029;-66
2024/02/12 02:20:36;;;;;;;33.95;18.52;;;;;;;-145.63;58.65;39045.75;5033346;28;20458;-65
2024/02/12 02:23:04;;;;;;;35.33;19.60;;;;;;;-145.63;58.61;39094.66;5023808;28;20459;-66
2024/02/12 02:25:33;;;;;;;31.43;18.80;;;;;;;-145.63;58.53;39102.47;5019778;28;20440;-64
2024/02/12 02:27:59;;;;;;;32.28;18.58;;;;;;;-145.63;58.87;39084.88;5032905;28;20121;-66
2024/02/12 02:30:25;;;;;;;40.03;20.48;;;;;;;-145.63;58.78;39090.75;5014817;28;20049;-64
2024/02/12 02:32:51;;;;;;;37.97;18.98;;;;;;;-145.63;58.50;39080.97;5031168;28;20068;-66
2024/02/12 02:35:17;;;;;;;34.08;19.35;;;;;;;-145.63;58.74;39086.81;5021937;28;20483;-65
2024/02/12 02:37:43;;;;;;;36.33;20.30;;;;;;;-145.63;58.76;39079.00;5022413;28;20057;-65
2024/02/12 02:40:09;;;;;;;34.70;19.98;;;;;;;-145.63;58.84;39080.97;5031572;28;20041;-65
2024/02/12 02:42:38;;;;;;;37.63;20.13;;;;;;;-145.63;59.01;39106.38;5014496;28;20026;-67
2024/02/12 02:45:06;;;;;;;34.65;18.27;;;;;;;-145.63;59.15;39096.59;5032996;28;20249;-65
2024/02/12 02:47:56;;;;;;;39.60;20.38;;;;;;;-145.63;59.54;38838.47;5017734;28;20034;-65
2024/02/12 02:50:22;;;;;;;34.27;18.10;;;;;;;-145.63;59.17;39086.81;5027248;28;20025;-64
2024/02/12 02:52:48;;;;;;;35.72;19.45;;;;;;;-145.63;59.11;39086.81;5036764;28;20021;-65
2024/02/12 02:55:16;;;;;;;36.35;19.73;;;;;;;-145.63;59.21;39098.56;5020306;28;20192;-64
2024/02/12 02:57:45;;;;;;;36.70;18.02;;;;;;;-145.63;59.43;39088.78;5014339;28;20032;-65
2024/02/12 03:00:12;;;;;;;36.95;20.17;;;;;;;-145.63;59.45;39092.69;5033511;28;20022;-66
2024/02/12 03:02:41;;;;;;;36.20;19.52;;;;;;;-145.63;59.69;39094.66;5018564;28;20037;-65
2024/02/12 03:05:08;;;;;;;36.08;18.77;;;;;;;-145.63;59.59;39096.59;5024460;28;20048;-64
2024/02/12 03:07:36;;;;;;;41.17;19.90;;;;;;;-145.63;59.29;39090.75;5039763;28;20106;-65
2024/02/12 03:10:02;;;;;;;37.75;19.83;;;;;;;-145.63;59.17;39092.69;5052102;28;20025;-65
2024/02/12 03:12:32;;;;;;;39.60;20.42;;;;;;;-145.63;59.10;39098.56;5032311;28;20992;-65
2024/02/12 03:14:59;;;;;;;34.88;19.40;;;;;;;-145.63;59.50;39094.66;5016519;28;20034;-66
2024/02/12 03:17:26;;;;;;;41.63;19.67;;;;;;;-145.63;59.67;39100.50;5024522;28;20167;-66
2024/02/12 03:19:52;;;;;;;37.40;20.02;;;;;;;-145.63;59.56;39079.00;5033807;28;20037;-64
2024/02/12 03:22:18;;;;;;;37.78;18.98;;;;;;;-145.63;59.13;39102.47;5029607;28;20040;-65
2024/02/12 03:24:44;;;;;;;33.40;19.33;;;;;;;-145.63;59.57;39114.22;5013353;28;20035;-66
2024/02/12 03:27:10;;;;;;;36.58;20.42;;;;;;;-145.63;59.57;39110.28;5025585;28;20037;-65
2024/02/12 03:29:36;;;;;;;39.70;19.50;;;;;;;-145.63;59.27;39102.47;5018808;28;20092;-65
2024/02/12 03:32:03;;;;;;;34.17;19.00;;;;;;;-145.63;59.40;39090.75;5023401;28;20053;-65
2024/02/12 03:34:31;;;;;;;36.17;20.30;;;;;;;-145.63;59.40;39112.25;5019833;28;20187;-66
2024/02/12 03:36:57;;;;;;;40.90;21.15;;;;;;;-145.63;59.11;38942.13;5032408;28;20026;-65
2024/02/12 03:39:26;;;;;;;36.95;19.92;;;;;;;-145.63;59.49;39108.34;5019914;28;20074;-65
2024/02/12 03:41:52;;;;;;;42.08;19.95;;;;;;;-145.63;59.21;39092.69;5022970;28;20056;-65
2024/02/12 03:44:18;;;;;;;36.35;18.63;;;;;;;-145.63;59.36;39116.16;5021410;28;20141;-65
2024/02/12 03:46:46;;;;;;;34.17;18.98;;;;;;;-145.63;59.28;39108.34;5025383;28;20038;-65
2024/02/12 04:00:16;;;;;;;35.50;19.67;;;;;;;-145.63;58.97;39122.03;5026066;28;20075;-66
2024/02/12 04:02:46;;;;;;;34.85;19.02;;;;;;;-145.63;58.54;39112.25;5032195;28;20040;-66
2024/02/12 04:05:12;;;;;;;37.92;20.02;;;;;;;-145.63;58.58;39127.91;5031345;28;20032;-66
2024/02/12 04:07:47;;;;;;;37.53;20.08;;;;;;;-145.63;59.15;39098.56;5033066;28;20386;-66
2024/02/12 04:10:13;;;;;;;35.65;19.85;;;;;;;-145.63;59.00;39096.59;5030969;28;20060;-65
2024/02/12 04:12:41;;;;;;;33.60;19.38;;;;;;;-145.63;59.12;39116.16;5013234;28;20034;-66
2024/02/12 04:15:11;;;;;;;35.65;18.88;;;;;;;-145.63;59.30;39104.44;5030875;28;20437;-65
2024/02/12 04:17:37;;;;;;;36.35;19.42;;;;;;;-145.63;59.40;39086.81;5032520;28;20030;-66
2024/02/12 04:20:10;;;;;;;38.15;19.65;;;;;;;-145.63;59.73;39102.47;5026596;28;20033;-65
2024/02/12 04:22:36;;;;;;;34.38;19.13;;;;;;;-145.63;59.46;39108.34;5032374;28;20038;-66
2024/02/12 04:25:04;;;;;;;31.27;18.10;;;;;;;-145.63;59.89;39122.03;5032713;28;20030;-65
2024/02/12 04:27:34;;;;;;;40.67;19.73;;;;;;;-145.63;59.99;39104.44;5019368;28;20056;-68
2024/02/12 04:30:00;;;;;;;36.60;19.58;;;;;;;-145.63;59.71;39118.13;5029567;28;20032;-67
2024/02/12 04:32:26;;;;;;;33.67;19.05;;;;;;;-145.63;59.77;39080.97;5032634;28;20045;-64
2024/02/12 04:34:52;;;;;;;32.10;19.00;;;;;;;-145.63;59.34;39106.38;5032120;28;20463;-64
2024/02/12 04:37:18;;;;;;;35.63;19.50;;;;;;;-145.63;59.27;39086.81;5035099;28;20417;-64
2024/02/12 04:39:44;;;;;;;36.05;18.25;;;;;;;-145.63;59.32;39110.28;5052405;28;20028;-63
2024/02/12 04:42:09;;;;;;;31.63;18.40;;;;;;;-145.63;59.74;39108.34;5033894;28;20026;-64
2024/02/12 04:44:35;;;;;;;35.47;18.67;;;;;;;-145.63;59.77;39094.66;5018257;28;20033;-64
2024/02/12 04:47:04;;;;;;;35.47;19.00;;;;;;;-145.63;59.54;39108.34;5032177;28;20052;-64
2024/02/12 04:49:30;;;;;;;33.35;18.55;;;;;;;-145.63;59.91;39092.69;5048945;28;20111;-63
2024/02/12 04:51:56;;;;;;;33.72;18.77;;;;;;;-145.63;59.87;39084.88;5031011;28;20121;-65
2024/02/12 04:54:25;;;;;;;37.17;19.35;;;;;;;-145.63;59.99;39106.38;5030030;28;20080;-65
2024/02/12 04:56:50;;;;;;;31.27;18.17;;;;;;;-145.63;59.80;39084.88;5023608;28;20125;-62
2024/02/12 04:59:18;;;;;;;33.70;18.00;;;;;;;-145.63;60.21;39125.94;5038490;28;20440;-61
2024/02/12 05:01:45;;;;;;;37.85;19.70;;;;;;;-145.63;60.18;39104.44;5058031;28;20390;-63
2024/02/12 05:04:11;;;;;;;34.47;19.35;;;;;;;-145.63;59.49;39123.97;5044516;28;20037;-63
2024/02/12 05:06:37;;;;;;;36.90;19.70;;;;;;;-145.63;59.30;39086.81;5018107;28;20026;-62
2024/02/12 05:09:04;;;;;;;37.55;19.25;;;;;;;-145.63;59.46;39123.97;5033862;28;20128;-63
2024/02/12 05:11:30;;;;;;;34.08;18.73;;;;;;;-145.63;59.26;39108.34;5026806;28;20429;-63
2024/02/12 05:13:56;;;;;;;35.50;17.70;;;;;;;-145.63;59.66;39096.59;5035033;28;20021;-62
2024/02/12 05:16:34;;;;;;;35.25;18.60;;;;;;;-145.63;59.59;39125.94;5027417;28;20474;-62
2024/02/12 05:24:34;;;;;;;31.88;18.77;;;;;;;-145.63;59.93;39108.34;5015367;28;20049;-63
2024/02/12 05:27:01;;;;;;;30.83;18.40;;;;;;;-145.63;59.87;39094.66;5018470;28;20026;-63
2024/02/12 05:29:27;;;;;;;36.13;18.63;;;;;;;-145.63;59.87;39100.50;5027156;28;20455;-62
2024/02/12 05:31:54;;;;;;;30.70;18.20;;;;;;;-145.63;60.17;39088.78;5027342;28;20042;-62
2024/02/12 05:34:21;;;;;;;31.35;17.90;;;;;;;-145.63;59.53;39112.25;5017649;28;20040;-62
2024/02/12 05:36:48;;;;;;;35.78;19.33;;;;;;;-145.63;59.82;39137.69;5035064;28;20025;-62
2024/02/12 05:39:16;;;;;;;30.60;17.55;;;;;;;-145.63;59.21;39139.63;5016357;28;20076;-62
2024/02/12 05:41:42;;;;;;;28.98;16.75;;;;;;;-145.63;59.63;39108.34;5029237;28;20124;-62
2024/02/12 05:44:08;;;;;;;30.02;17.75;;;;;;;-145.63;59.30;39131.81;5025464;28;20030;-62
2024/02/12 05:46:34;;;;;;;30.50;17.80;;;;;;;-145.63;59.56;39096.59;5019514;28;20463;-62
2024/02/12 05:49:00;;;;;;;30.40;18.38;;;;;;;-145.63;60.15;39102.47;5034560;28;20034;-64
2024/02/12 05:51:26;;;;;;;31.90;17.88;;;;;;;-145.63;59.83;39118.13;5034348;28;20032;-62
2024/02/12 05:53:53;;;;;;;29.20;17.55;;;;;;;-145.63;60.25;39112.25;5033143;28;20441;-62
2024/02/12 05:56:22;;;;;;;30.60;16.55;;;;;;;-145.63;60.25;39100.50;5025439;28;20037;-62
2024/02/12 05:58:47;;;;;;;26.80;15.77;;;;;;;-145.63;60.27;39135.72;5020271;28;20439;-62
2024/02/12 06:01:13;;;;;;;28.17;16.77;;;;;;;-145.63;60.54;39112.25;5035507;28;20052;-62
2024/02/12 06:03:39;;;;;;;29.10;17.40;;;;;;;-145.63;60.45;39071.19;5041578;28;20037;-62
2024/02/12 06:06:05;;;;;;;33.60;18.10;;;;;;;-145.63;60.38;39122.03;5033951;28;20032;-62
2024/02/12 06:08:32;;;;;;;30.80;17.23;;;;;;;-145.63;59.86;39122.03;5033059;28;20041;-62
2024/02/12 06:10:57;;;;;;;30.63;17.35;;;;;;;-145.63;59.74;39149.41;5033743;28;20037;-62
2024/02/12 06:13:23;;;;;;;27.38;15.75;;;;;;;-145.63;60.56;39110.28;5033517;28;20030;-62
2024/02/12 06:15:49;;;;;;;30.75;17.98;;;;;;;-145.63;60.59;39110.28;5021754;28;20034;-62
2024/02/12 06:18:15;;;;;;;31.25;18.23;;;;;;;-145.63;60.34;39116.16;5033774;28;20435;-62
2024/02/12 06:20:42;;;;;;;29.30;17.45;;;;;;;-145.63;60.09;39079.00;5033411;28;20116;-62
2024/02/12 06:23:08;;;;;;;28.85;18.08;;;;;;;-145.63;60.40;39131.81;5042937;28;20064;-63
2024/02/12 06:25:34;;;;;;;31.55;18.30;;;;;;;-145.63;60.44;39129.84;5037700;28;20446;-62
2024/02/12 06:28:03;;;;;;;30.40;16.80;;;;;;;-145.63;60.34;39123.97;5034066;28;20044;-63
2024/02/12 06:30:29;;;;;;;35.72;18.50;;;;;;;-145.63;60.48;39145.50;5027043;28;20667;-62
2024/02/12 06:32:55;;;;;;;29.90;17.40;;;;;;;-145.63;60.09;39108.34;5033569;28;20131;-62
2024/02/12 06:35:20;;;;;;;31.27;17.75;;;;;;;-145.63;60.21;39098.56;5032632;28;20032;-63
2024/02/12 06:38:02;;;;;;;29.92;15.82;;;;;;;-145.63;60.34;39096.59;5021683;28;20402;-63
2024/02/12 06:40:30;;;;;;;29.52;18.00;;;;;;;-145.63;60.91;39075.09;5033414;28;20033;-62
2024/02/12 06:42:59;;;;;;;30.83;19.00;;;;;;;-145.63;60.89;39086.81;5033952;28;20045;-62
2024/02/12 06:45:25;;;;;;;28.92;17.52;;;;;;;-145.63;60.61;39071.19;5032874;28;20422;-62
2024/02/12 06:47:51;;;;;;;32.78;18.70;;;;;;;-145.63;60.71;39082.91;5033420;28;20026;-62
2024/02/12 06:50:16;;;;;;;31.70;18.65;;;;;;;-145.63;61.31;39102.47;5035022;28;20029;-63
2024/02/12 06:53:03;;;;;;;28.83;17.88;;;;;;;-145.63;60.88;39079.00;5031518;28;20025;-63
2024/02/12 06:55:29;;;;;;;35.20;18.83;;;;;;;-145.63;61.00;39059.44;5032919;28;20504;-63
2024/02/12 06:57:57;;;;;;;33.97;20.00;;;;;;;-145.63;60.76;39061.41;5033268;28;20033;-64
2024/02/12 07:00:23;;;;;;;30.92;17.65;;;;;;;-145.63;60.82;39071.19;5033076;28;20078;-65
2024/02/12 07:02:48;;;;;;;28.95;18.08;;;;;;;-145.63;60.64;39065.31;5033260;28;20086;-63
2024/02/12 07:05:16;;;;;;;27.60;17.73;;;;;;;-145.63;61.52;39071.19;5022197;28;20163;-62
2024/02/12 07:07:42;;;;;;;31.95;18.23;;;;;;;-145.63;60.94;39086.81;5032286;28;20040;-63
2024/02/12 07:10:09;;;;;;;30.65;18.05;;;;;;;-145.63;61.11;39057.50;5032281;28;20033;-63
2024/02/12 07:12:37;;;;;;;31.10;17.75;;;;;;;-145.63;60.52;39086.81;5017440;28;20033;-63
2024/02/12 07:15:08;;;;;;;32.35;18.33;;;;;;;-145.63;60.50;39090.75;5031598;28;20459;-63
2024/02/12 07:17:34;;;;;;;27.80;17.45;;;;;;;-145.63;60.61;39092.69;5032727;28;20022;-63
2024/02/12 07:20:04;;;;;;;27.50;16.05;;;;;;;-145.63;60.55;39096.59;5025654;28;20037;-64
2024/02/12 07:22:32;;;;;;;28.73;16.50;;;;;;;-145.63;60.51;39098.56;5016864;28;20030;-65
2024/02/12 07:24:58;;;;;;;25.33;16.25;;;;;;;-145.63;60.36;39084.88;5032837;28;20046;-64
2024/02/12 07:27:24;;;;;;;27.30;16.77;;;;;;;-145.63;60.28;39055.53;5030188;28;20032;-64
2024/02/12 07:29:49;;;;;;;27.40;16.05;;;;;;;-145.63;60.11;39071.19;5047084;28;20029;-64
2024/02/12 07:32:16;;;;;;;30.17;17.63;;;;;;;-145.63;60.53;39120.06;5042947;28;20056;-64
2024/02/12 07:34:43;;;;;;;26.65;16.52;;;;;;;-145.63;59.60;39114.22;5037325;28;20048;-65
2024/02/12 07:37:10;;;;;;;27.42;16.70;;;;;;;-145.63;60.13;39094.66;5037606;28;20075;-64
2024/02/12 07:39:49;;;;;;;31.48;17.88;;;;;;;-145.63;59.74;39059.44;5032745;28;20040;-65
2024/02/12 07:42:15;;;;;;;22.77;14.18;;;;;;;-145.63;60.34;39075.09;5030243;28;20064;-64
2024/02/12 07:44:41;;;;;;;26.50;16.52;;;;;;;-145.63;60.40;39102.47;5032426;28;20041;-63
2024/02/12 07:47:07;;;;;;;27.65;16.52;;;;;;;-145.63;59.92;39118.13;5032567;28;20026;-64
2024/02/12 07:49:34;;;;;;;28.73;16.95;;;;;;;-145.63;59.79;39079.00;5033153;28;20048;-64
2024/02/12 07:52:00;;;;;;;27.98;16.98;;;;;;;-145.63;60.40;39059.44;5032788;28;20495;-64
2024/02/12 07:54:28;;;;;;;27.40;16.10;;;;;;;-145.63;60.04;39084.88;5032269;28;20378;-63
2024/02/12 07:56:55;;;;;;;30.90;17.35;;;;;;;-145.63;60.58;39067.28;5032594;28;20034;-63
2024/02/12 07:59:21;;;;;;;32.13;17.80;;;;;;;-145.63;59.82;39086.81;5032332;28;20463;-62
2024/02/12 08:01:47;;;;;;;31.63;17.90;;;;;;;-145.63;60.62;39092.69;5027400;28;20034;-65
2024/02/12 08:04:13;;;;;;;30.08;17.23;;;;;;;-145.63;60.48;39077.06;5013554;28;20041;-63
2024/02/12 08:06:40;;;;;;;29.58;18.23;;;;;;;-145.63;60.17;39080.97;5032969;28;20029;-65
2024/02/12 08:09:07;;;;;;;29.70;17.63;;;;;;;-145.63;60.04;39086.81;5032280;28;20050;-65
2024/02/12 08:11:35;;;;;;;30.15;17.17;;;;;;;-145.63;60.36;39079.00;5020927;28;20065;-64
2024/02/12 08:14:00;;;;;;;30.38;17.65;;;;;;;-145.63;60.96;39090.75;5019865;28;20057;-63
2024/02/12 08:16:27;;;;;;;28.35;16.50;;;;;;;-145.63;60.44;39084.88;5029865;28;20093;-63
2024/02/12 08:18:53;;;;;;;30.00;18.45;;;;;;;-145.63;60.73;39065.31;5028780;28;20095;-64
2024/02/12 08:21:19;;;;;;;27.23;16.85;;;;;;;-145.63;60.51;39075.09;5033018;28;20471;-63
2024/02/12 08:23:44;;;;;;;30.48;18.02;;;;;;;-145.63;60.57;39067.28;5023779;28;20121;-63
2024/02/12 08:26:10;;;;;;;29.77;16.75;;;;;;;-145.63;60.15;39061.41;5023445;28;20075;-63
2024/02/12 08:28:39;;;;;;;31.75;17.83;;;;;;;-145.63;60.22;39100.50;5019995;28;20355;-65
2024/02/12 08:31:04;;;;;;;28.15;16.58;;;;;;;-145.63;60.77;39071.19;5015846;28;20441;-63
2024/02/12 08:33:30;;;;;;;28.02;17.08;;;;;;;-145.63;60.81;39057.50;5053028;28;20119;-64
2024/02/12 08:35:56;;;;;;;30.33;17.88;;;;;;;-145.63;60.48;39084.88;5037310;28;20069;-64
2024/02/12 08:38:21;;;;;;;29.13;17.00;;;;;;;-145.63;60.53;39045.75;5032427;28;20372;-64
2024/02/12 08:40:50;;;;;;;31.90;17.75;;;;;;;-145.63;60.07;39080.97;5028415;28;20077;-65
2024/02/12 08:43:16;;;;;;;28.63;18.10;;;;;;;-145.63;59.74;39088.78;5034407;28;20033;-64
2024/02/12 08:45:49;;;;;;;31.40;16.67;;;;;;;-145.63;59.78;39075.09;5018045;28;20037;-64
2024/02/12 08:48:29;;;;;;;28.92;17.50;;;;;;;-145.63;60.23;39102.47;5035750;28;20445;-64
2024/02/12 08:50:55;;;;;;;26.35;14.65;;;;;;;-145.63;60.05;39067.28;5049975;28;20067;-63
2024/02/12 08:53:21;;;;;;;27.75;16.48;;;;;;;-145.63;60.51;39067.28;5045289;28;20029;-63
2024/02/12 08:55:48;;;;;;;30.10;16.92;;;;;;;-145.63;60.44;39073.13;5036155;28;20029;-65
2024/02/12 08:58:15;;;;;;;27.73;16.13;;;;;;;-145.63;59.78;39073.13;5034004;28;20388;-64
2024/02/12 09:00:44;;;;;;;25.95;15.02;;;;;;;-145.63;60.34;39079.00;5027371;28;20061;-65
2024/02/12 09:03:30;;;;;;;27.65;14.40;;;;;;;-145.63;59.90;39096.59;5020706;28;20490;-64
2024/02/12 09:05:55;;;;;;;23.75;14.38;;;;;;;-145.63;59.88;39098.56;5029711;28;20044;-65
2024/02/12 09:08:21;;;;;;;26.33;16.25;;;;;;;-145.63;60.12;39112.25;5026409;28;20061;-64
2024/02/12 09:10:47;;;;;;;24.73;15.63;;;;;;;-145.63;59.72;39102.47;5023533;28;20033;-64
2024/02/12 09:13:12;;;;;;;27.25;15.63;;;;;;;-145.63;60.10;39102.47;5021087;28;20076;-64
2024/02/12 09:15:39;;;;;;;25.50;14.18;;;;;;;-145.63;59.60;39127.91;5032825;28;20520;-65
2024/02/12 09:18:05;;;;;;;23.20;14.30;;;;;;;-145.63;60.32;39106.38;5030320;28;20493;-64
2024/02/12 09:20:31;;;;;;;25.50;15.65;;;;;;;-145.63;59.86;39110.28;5024854;28;20117;-64
2024/02/12 09:22:58;;;;;;;23.60;15.23;;;;;;;-145.63;59.86;39106.38;5021075;28;20095;-64
2024/02/12 09:25:23;;;;;;;25.13;14.98;;;;;;;-145.63;60.28;39129.84;5033479;28;20413;-64
2024/02/12 09:27:49;;;;;;;21.75;14.43;;;;;;;-145.63;60.36;39106.38;5034993;28;20040;-64
2024/02/12 09:30:16;;;;;;;22.83;14.15;;;;;;;-145.63;60.35;39102.47;5035121;28;20030;-64
2024/02/12 09:32:43;;;;;;;25.30;14.80;;;;;;;-145.63;60.80;39098.56;5022412;28;20037;-64
2024/02/12 09:35:10;;;;;;;22.67;13.70;;;;;;;-145.63;60.98;39073.13;5020772;28;20029;-65
2024/02/12 09:37:37;;;;;;;19.05;12.73;;;;;;;-145.63;61.17;39082.91;5019532;28;20180;-64
2024/02/12 09:40:05;;;;;;;21.23;13.38;;;;;;;-145.63;61.12;39096.59;5030728;28;20390;-64
2024/02/12 09:42:48;;;;;;;22.60;13.90;;;;;;;-145.63;61.36;39079.00;5025319;28;20440;-65
2024/02/12 09:45:17;;;;;;;18.80;11.90;;;;;;;-145.63;60.68;39088.78;5023701;28;20036;-66
2024/02/12 09:47:44;;;;;;;20.05;12.50;;;;;;;-145.63;60.83;39114.22;5026317;28;20030;-64
2024/02/12 09:50:12;;;;;;;19.98;13.18;;;;;;;-145.63;61.40;39041.84;5023818;28;20037;-65
2024/02/12 09:52:40;;;;;;;21.35;12.52;;;;;;;-145.63;60.98;39080.97;5030809;28;20044;-64
2024/02/12 09:55:06;;;;;;;19.77;11.52;;;;;;;-145.63;61.09;39079.00;5026445;28;20038;-65
2024/02/12 09:57:33;;;;;;;17.35;11.23;;;;;;;-145.63;60.99;39112.25;5033786;28;20562;-66
2024/02/12 10:00:00;;;;;;;19.85;12.38;;;;;;;-145.63;61.08;39123.97;5034842;28;20105;-66
2024/02/12 10:02:35;;;;;;;20.23;12.40;;;;;;;-145.63;60.82;39102.47;5025293;28;20108;-64
2024/02/12 10:05:22;;;;;;;19.42;11.60;;;;;;;-145.63;60.89;39090.75;5022374;28;20072;-65
2024/02/12 10:08:24;;;;;;;20.20;12.43;;;;;;;-145.63;60.52;39114.22;5021591;28;20417;-66
2024/02/12 10:11:10;;;;;;;19.63;13.10;;;;;;;-145.63;60.61;39098.56;5027108;28;20038;-65
2024/02/12 10:14:00;;;;;;;20.00;12.63;;;;;;;-145.63;61.04;39080.97;5018971;28;20112;-64
2024/02/12 10:16:46;;;;;;;21.50;12.48;;;;;;;-145.63;60.86;39092.69;5029907;28;20037;-64
2024/02/12 10:19:32;;;;;;;20.13;12.77;;;;;;;-145.63;61.18;39098.56;5016171;28;20053;-65
2024/02/12 10:22:19;;;;;;;19.08;12.77;;;;;;;-145.63;60.65;39094.66;5033958;28;20030;-66
2024/02/12 10:25:05;;;;;;;20.63;12.70;;;;;;;-145.63;60.61;39118.13;5014107;28;20463;-65
2024/02/12 10:27:51;;;;;;;20.45;12.95;;;;;;;-145.63;60.77;39125.94;5023996;28;20029;-64
2024/02/12 10:30:37;;;;;;;19.70;13.23;;;;;;;-145.63;60.60;39125.94;5029566;28;20151;-63
2024/02/12 10:33:23;;;;;;;19.48;11.68;;;;;;;-145.63;60.21;39118.13;5029527;28;20474;-64
2024/02/12 10:36:09;;;;;;;19.13;13.00;;;;;;;-145.63;60.79;39114.22;5018994;28;20075;-63
2024/02/12 10:39:00;;;;;;;20.65;12.45;;;;;;;-145.63;60.88;39098.56;5016743;28;20034;-64
2024/02/12 10:41:50;;;;;;;19.65;11.88;;;;;;;-145.63;60.86;39122.03;5016481;28;20042;-64
2024/02/12 10:44:38;;;;;;;17.48;10.68;;;;;;;-145.63;60.94;39112.25;5021357;28;20045;-65
2024/02/12 10:47:23;;;;;;;17.90;11.57;;;;;;;-145.63;60.66;39086.81;5031948;28;20107;-64
2024/02/12 10:50:13;;;;;;;20.15;11.88;;;;;;;-145.63;61.11;39116.16;5032754;28;20029;-64
2024/02/12 10:53:00;;;;;;;19.67;12.32;;;;;;;-145.63;61.41;38994.91;5026154;28;20038;-63
2024/02/12 10:55:46;;;;;;;18.80;10.02;;;;;;;-145.63;60.98;39102.47;5016471;28;20078;-65
2024/02/12 10:58:12;;;;;;;18.80;11.63;;;;;;;-145.63;60.96;39120.06;5015100;28;20034;-67
2024/02/12 11:00:40;;;;;;;19.60;11.13;;;;;;;-145.63;61.50;39133.75;5027773;28;20026;-67
2024/02/12 11:03:14;;;;;;;17.33;11.23;;;;;;;-145.63;60.83;39114.22;5033001;28;20096;-64
2024/02/12 11:05:43;;;;;;;17.02;11.27;;;;;;;-145.63;61.19;39145.50;5027813;28;20038;-65
2024/02/12 11:08:15;;;;;;;18.10;11.27;;;;;;;-145.63;61.77;39114.22;5027112;28;20080;-65
2024/02/12 11:10:43;;;;;;;15.90;10.98;;;;;;;-145.63;61.25;39112.25;5032201;28;20030;-64
2024/02/12 11:13:15;;;;;;;17.92;11.95;;;;;;;-145.63;61.40;39118.13;5034826;28;20458;-65
2024/02/12 11:15:51;;;;;;;19.27;11.75;;;;;;;-145.63;60.81;39118.13;5013726;28;20041;-63
2024/02/12 11:18:16;;;;;;;17.52;11.73;;;;;;;-145.63;60.71;39141.59;5029506;28;20036;-63
2024/02/12 11:20:49;;;;;;;18.35;12.57;;;;;;;-145.63;60.62;39143.53;5021089;28;20030;-64
2024/02/12 11:23:25;;;;;;;19.45;11.57;;;;;;;-145.63;60.54;39133.75;5028254;28;20037;-63
2024/02/12 11:26:00;;;;;;;17.08;11.75;;;;;;;-145.63;60.61;39153.31;5032134;28;20105;-65
2024/02/12 11:28:28;;;;;;;17.55;11.95;;;;;;;-145.63;60.84;39102.47;5031127;28;20120;-64